Map

Track Data

SID SEASON NUMBER BASIN SUBBASIN NAME ISO_TIME NATURE LAT LON WMO_WIND WMO_PRES WMO_AGENCY TRACK_TYPE DIST2LAND LANDFALL IFLAG USA_AGENCY USA_ATCF_ID USA_LAT USA_LON USA_RECORD USA_STATUS USA_WIND USA_PRES USA_SSHS USA_R34_NE USA_R34_SE USA_R34_SW USA_R34_NW USA_R50_NE USA_R50_SE USA_R50_SW USA_R50_NW USA_R64_NE USA_R64_SE USA_R64_SW USA_R64_NW USA_POCI USA_ROCI USA_RMW USA_EYE TOKYO_LAT TOKYO_LON TOKYO_GRADE TOKYO_WIND TOKYO_PRES TOKYO_R50_DIR TOKYO_R50_LONG TOKYO_R50_SHORT TOKYO_R30_DIR TOKYO_R30_LONG TOKYO_R30_SHORT TOKYO_LAND CMA_LAT CMA_LON CMA_CAT CMA_WIND CMA_PRES HKO_LAT HKO_LON HKO_CAT HKO_WIND HKO_PRES NEWDELHI_LAT NEWDELHI_LON NEWDELHI_GRADE NEWDELHI_WIND NEWDELHI_PRES NEWDELHI_CI NEWDELHI_DP NEWDELHI_POCI REUNION_LAT REUNION_LON REUNION_TYPE REUNION_WIND REUNION_PRES REUNION_TNUM REUNION_CI REUNION_RMW REUNION_R34_NE REUNION_R34_SE REUNION_R34_SW REUNION_R34_NW REUNION_R50_NE REUNION_R50_SE REUNION_R50_SW REUNION_R50_NW REUNION_R64_NE REUNION_R64_SE REUNION_R64_SW REUNION_R64_NW BOM_LAT BOM_LON BOM_TYPE BOM_WIND BOM_PRES BOM_TNUM BOM_CI BOM_RMW BOM_R34_NE BOM_R34_SE BOM_R34_SW BOM_R34_NW BOM_R50_NE BOM_R50_SE BOM_R50_SW BOM_R50_NW BOM_R64_NE BOM_R64_SE BOM_R64_SW BOM_R64_NW BOM_ROCI BOM_POCI BOM_EYE BOM_POS_METHOD BOM_PRES_METHOD NADI_LAT NADI_LON NADI_CAT NADI_WIND NADI_PRES WELLINGTON_LAT WELLINGTON_LON WELLINGTON_WIND WELLINGTON_PRES DS824_LAT DS824_LON DS824_STAGE DS824_WIND DS824_PRES TD9636_LAT TD9636_LON TD9636_STAGE TD9636_WIND TD9636_PRES TD9635_LAT TD9635_LON TD9635_WIND TD9635_PRES TD9635_ROCI NEUMANN_LAT NEUMANN_LON NEUMANN_CLASS NEUMANN_WIND NEUMANN_PRES MLC_LAT MLC_LON MLC_CLASS MLC_WIND MLC_PRES USA_GUST BOM_GUST BOM_GUST_PER REUNION_GUST REUNION_GUST_PER USA_SEAHGT USA_SEARAD_NE USA_SEARAD_SE USA_SEARAD_SW USA_SEARAD_NW STORM_SPEED STORM_DIR
1891205N22088 1891 15 NI BB NOT_NAMED 1891-07-24 00:00:00 TS 21.9000 88.1000 main 10 0 _________O____ -1 21.9000 88.1000 TC 30 2 308
1891205N22088 1891 15 NI BB NOT_NAMED 1891-07-24 03:00:00 TS 21.9734 87.9984 main 0 0 _________PO___ -1 22.0100 87.9476 TC 30 21.9000 88.1000 1 3 305
1891205N22088 1891 15 NI BB NOT_NAMED 1891-07-24 06:00:00 TS 22.0519 87.8675 main 0 0 _________OP___ -1 22.1000 87.8000 TC 30 21.9797 87.9688 1 3 300
1891205N22088 1891 15 NI BB NOT_NAMED 1891-07-24 09:00:00 TS 22.1146 87.7314 main 0 0 _________PP___ -1 22.1575 87.6575 TC 30 22.0575 87.8301 1 3 294
1891205N22088 1891 15 NI BB NOT_NAMED 1891-07-24 12:00:00 TS 22.1658 87.5881 main 0 0 _________OP___ -1 22.2000 87.5000 TC 30 22.1315 87.6763 1 3 290
1891205N22088 1891 15 NI BB NOT_NAMED 1891-07-24 15:00:00 TS 22.2250 87.4075 main 0 0 _________PO___ -1 22.2500 87.3150 TC 30 22.2000 87.5000 1 4 288
1891205N22088 1891 15 NI BB NOT_NAMED 1891-07-24 18:00:00 TS 22.2806 87.1983 main 0 0 _________OP___ -1 22.3000 87.1000 TC 30 22.2613 87.2966 1 4 285
1891205N22088 1891 15 NI BB NOT_NAMED 1891-07-24 21:00:00 TS 22.3363 86.9650 main 0 0 _________PP___ -1 22.3575 86.8575 TC 30 22.3150 87.0725 1 5 283
1891205N22088 1891 15 NI BB NOT_NAMED 1891-07-25 00:00:00 TS 22.3806 86.7186 main 0 0 _________OP___ -1 22.4000 86.6000 TC 30 22.3613 86.8372 1 5 278
1891205N22088 1891 15 NI BB NOT_NAMED 1891-07-25 03:00:00 TS 22.4000 86.4712 main 0 0 _________PO___ -1 22.4000 86.3424 TC 30 22.4000 86.6000 1 5 274
1891205N22088 1891 15 NI BB NOT_NAMED 1891-07-25 06:00:00 TS 22.4161 86.2273 main 0 0 _________OP___ -1 22.4000 86.1000 TC 30 22.4323 86.3546 1 4 277
1891205N22088 1891 15 NI BB NOT_NAMED 1891-07-25 09:00:00 TS 22.4538 85.9950 main 0 0 _________PP___ -1 22.4500 85.8775 TC 30 22.4576 86.1124 1 4 280
1891205N22088 1891 15 NI BB NOT_NAMED 1891-07-25 12:00:00 TS 22.4896 85.7945 main 0 0 _________OP___ -1 22.5000 85.7000 TC 30 22.4792 85.8890 1 3 278
1891205N22088 1891 15 NI BB NOT_NAMED 1891-07-25 15:00:00 TS 22.5000 85.6425 main 0 0 _________PO___ -1 22.5000 85.5850 TC 30 22.5000 85.7000 1 2 273
1891205N22088 1891 15 NI BB NOT_NAMED 1891-07-25 18:00:00 TS 22.5019 85.5683 main 0 0 _________OP___ -1 22.5000 85.5000 TC 30 22.5038 85.6366 1 1 281
1891205N22088 1891 15 NI BB NOT_NAMED 1891-07-25 21:00:00 TS 22.5191 85.5319 main 0 0 _________PP___ -1 22.5272 85.4673 TC 30 22.5110 85.5966 1 2 294
1891205N22088 1891 15 NI BB NOT_NAMED 1891-07-26 00:00:00 TS 22.5689 85.4041 main 0 0 _________OP___ -1 22.6000 85.3000 TC 30 22.5378 85.5082 1 5 289
1891205N22088 1891 15 NI BB NOT_NAMED 1891-07-26 03:00:00 TS 22.6677 85.0588 main 0 0 _________PO___ -1 22.7353 84.8177 TC 30 22.6000 85.3000 1 8 287
1891205N22088 1891 15 NI BB NOT_NAMED 1891-07-26 06:00:00 TS 22.8096 84.5340 main 0 0 _________OP___ -1 22.9000 84.2000 TC 30 22.7193 84.8679 1 10 287
1891205N22088 1891 15 NI BB NOT_NAMED 1891-07-26 09:00:00 TS 22.9645 83.9780 main 0 0 _________PP___ -1 23.0574 83.6425 TC 30 22.8717 84.3135 1 11 287
1891205N22088 1891 15 NI BB NOT_NAMED 1891-07-26 12:00:00 TS 23.1190 83.4011 main 0 0 _________OP___ -1 23.2000 83.1000 TC 30 23.0380 83.7022 1 11 285
1891205N22088 1891 15 NI BB NOT_NAMED 1891-07-26 15:00:00 TS 23.2499 82.8424 main 0 0 _________PO___ -1 23.2998 82.5848 TC 30 23.2000 83.1000 1 10 284
1891205N22088 1891 15 NI BB NOT_NAMED 1891-07-26 18:00:00 TS 23.3658 82.3454 main 0 0 _________OP___ -1 23.4000 82.1000 TC 30 23.3316 82.5909 1 9 286
1891205N22088 1891 15 NI BB NOT_NAMED 1891-07-26 21:00:00 TS 23.5034 81.8698 main 0 0 _________PP___ -1 23.5499 81.6351 TC 30 23.4569 82.1045 1 9 288
1891205N22088 1891 15 NI BB NOT_NAMED 1891-07-27 00:00:00 TS 23.6393 81.4205 main 0 0 _________OP___ -1 23.7000 81.2000 TC 30 23.5787 81.6409 1 8 287
1891205N22088 1891 15 NI BB NOT_NAMED 1891-07-27 03:00:00 TS 23.7499 80.9961 main 0 0 _________PO___ -1 23.7998 80.7923 TC 30 23.7000 81.2000 1 8 286
1891205N22088 1891 15 NI BB NOT_NAMED 1891-07-27 06:00:00 TS 23.8622 80.5871 main 0 0 _________OP___ -1 23.9000 80.4000 TC 30 23.8245 80.7741 1 8 289
1891205N22088 1891 15 NI BB NOT_NAMED 1891-07-27 09:00:00 TS 23.9996 80.1811 main 0 0 _________PP___ -1 24.0500 79.9926 TC 30 23.9493 80.3696 1 8 291
1891205N22088 1891 15 NI BB NOT_NAMED 1891-07-27 12:00:00 TS 24.1373 79.7902 main 0 0 _________OP___ -1 24.2000 79.6000 TC 30 24.0745 79.9804 1 7 290
1891205N22088 1891 15 NI BB NOT_NAMED 1891-07-27 15:00:00 TS 24.2499 79.4249 main 0 0 _________PO___ -1 24.2998 79.2498 TC 30 24.2000 79.6000 1 7 289
1891205N22088 1891 15 NI BB NOT_NAMED 1891-07-27 18:00:00 TS 24.3559 79.0767 main 0 0 _________OP___ -1 24.4000 78.9000 TC 30 24.3117 79.2535 1 7 290
1891205N22088 1891 15 NI BB NOT_NAMED 1891-07-27 21:00:00 TS 24.4802 78.7229 main 0 0 _________PP___ -1 24.5347 78.5373 TC 30 24.4258 78.9086 1 7 291
1891205N22088 1891 15 NI BB NOT_NAMED 1891-07-28 00:00:00 TS 24.6260 78.3172 main 0 0 _________OP___ -1 24.7000 78.1000 TC 30 24.5521 78.5345 1 9 291
1891205N22088 1891 15 NI AS NOT_NAMED 1891-07-28 03:00:00 TS 24.7963 77.8150 main 0 0 _________PO___ -1 24.8926 77.5300 TC 30 24.7000 78.1000 1 11 290
1891205N22088 1891 15 NI AS NOT_NAMED 1891-07-28 06:00:00 TS 24.9894 77.2325 main 0 0 _________OP___ -1 25.1000 76.9000 TC 30 24.8788 77.5649 1 11 290
1891205N22088 1891 15 NI AS NOT_NAMED 1891-07-28 09:00:00 TS 25.1889 76.6338 main 0 0 _________PP___ -1 25.2998 76.2998 TC 30 25.0780 76.9677 1 12 290
1891205N22088 1891 15 NI AS NOT_NAMED 1891-07-28 12:00:00 TS 25.3940 76.0183 main 0 0 _________OP___ -1 25.5000 75.7000 TC 30 25.2880 76.3366 1 12 290
1891205N22088 1891 15 NI AS NOT_NAMED 1891-07-28 15:00:00 TS 25.5999 75.3999 main 0 0 _________PO___ -1 25.6998 75.0998 TC 30 25.5000 75.7000 1 12 290
1891205N22088 1891 15 NI AS NOT_NAMED 1891-07-28 18:00:00 TS 25.8020 74.7878 main 0 0 _________OP___ -1 25.9000 74.5000 TC 30 25.7040 75.0755 1 12 290
1891205N22088 1891 15 NI AS NOT_NAMED 1891-07-28 21:00:00 TS 26.0075 74.1662 main 0 0 _________PP___ -1 26.1075 73.8775 TC 30 25.9075 74.4549 1 12 290
1891205N22088 1891 15 NI AS NOT_NAMED 1891-07-29 00:00:00 TS 26.2036 73.5784 main 0 0 _________OP___ -1 26.3000 73.3000 TC 30 26.1072 73.8568 1 11 290
1891205N22088 1891 15 NI AS NOT_NAMED 1891-07-29 03:00:00 TS 26.3748 73.0636 main 0 0 _________PO___ -1 26.4496 72.8271 TC 30 26.3000 73.3000 1 9 291
1891205N22088 1891 15 NI AS NOT_NAMED 1891-07-29 06:00:00 TS 26.5385 72.6010 main 0 0 _________OP___ -1 26.6000 72.4000 TC 30 26.4770 72.8019 1 9 293
1891205N22088 1891 15 NI AS NOT_NAMED 1891-07-29 09:00:00 TS 26.7205 72.1481 main 0 0 _________PP___ -1 26.7924 71.9499 TC 30 26.6486 72.3463 1 9 295
1891205N22088 1891 15 NI AS NOT_NAMED 1891-07-29 12:00:00 TS 26.9105 71.7088 main 0 0 _________OP___ -1 27.0000 71.5000 TC 30 26.8210 71.9176 1 9 296
1891205N22088 1891 15 NI AS NOT_NAMED 1891-07-29 15:00:00 TS 27.1000 71.2712 main 0 0 _________PO___ -1 27.1999 71.0424 TC 30 27.0000 71.5000 1 8 296
1891205N22088 1891 15 NI AS NOT_NAMED 1891-07-29 18:00:00 TS 27.2800 70.8745 main 0 0 _________OP___ -1 27.4000 70.6000 TC 30 27.1900 71.0804 1 8 298
1891205N22088 1891 15 NI AS NOT_NAMED 1891-07-29 21:00:00 TS 27.4734 70.4701 main 0 0 _________PP___ -1 27.6002 70.1903 TC 30 27.3889 70.6566 1 8 299
1891205N22088 1891 15 NI AS NOT_NAMED 1891-07-30 00:00:00 TS 27.6623 70.0864 main 0 0 _________OP___ -1 27.8000 69.8000 TC 30 27.5934 70.2296 1 7 299
1891205N22088 1891 15 NI AS NOT_NAMED 1891-07-30 03:00:00 NR 27.8000 69.8000 main 0 __________O___ -1 TC 27.8000 69.8000 1 6 299

About IBTrACS Database

This database is a web-friendly format of International Best Track Archive for Climate Stewardship (IBTrACS), a global best track data archive curated by NOAA dating back to 1842.

Updated: 2021-10-08